createdAt,value
2023-09-02T00:01:40.195Z,1.58
2023-09-02T00:04:06.923Z,1.80
2023-09-02T00:06:33.442Z,1.70
2023-09-02T00:09:02.262Z,2.00
2023-09-02T00:11:28.799Z,1.70
2023-09-02T00:13:55.274Z,1.60
2023-09-02T00:16:21.923Z,1.60
2023-09-02T00:18:48.614Z,1.55
2023-09-02T00:21:15.172Z,1.55
2023-09-02T00:23:46.337Z,1.40
2023-09-02T00:26:13.330Z,1.50
2023-09-02T00:28:39.967Z,1.60
2023-09-02T00:31:08.872Z,1.50
2023-09-02T00:33:35.450Z,1.83
2023-09-02T00:36:04.254Z,1.63
2023-09-02T00:38:30.849Z,1.52
2023-09-02T00:41:01.914Z,1.70
2023-09-02T00:43:29.894Z,1.50
2023-09-02T00:45:56.923Z,1.48
2023-09-02T00:48:25.842Z,1.60
2023-09-02T00:50:52.325Z,1.70
2023-09-02T00:53:20.012Z,1.60
2023-09-02T00:55:50.481Z,1.95
2023-09-02T00:58:17.558Z,1.73
2023-09-02T01:00:48.596Z,1.80
2023-09-02T01:03:15.650Z,1.52
2023-09-02T01:05:42.472Z,1.67
2023-09-02T01:08:08.971Z,2.00
2023-09-02T01:10:38.225Z,1.55
2023-09-02T01:13:04.977Z,1.60
2023-09-02T01:15:34.256Z,1.45
2023-09-02T01:18:00.866Z,1.55
2023-09-02T01:20:55.518Z,1.40
2023-09-02T01:23:54.234Z,1.50
2023-09-02T01:26:40.318Z,1.65
2023-09-02T01:29:11.041Z,1.50
2023-09-02T01:31:38.490Z,1.65
2023-09-02T01:34:08.310Z,1.48
2023-09-02T01:36:35.946Z,1.70
2023-09-02T01:39:03.398Z,1.90
2023-09-02T01:41:31.763Z,1.42
2023-09-02T01:44:03.197Z,1.58
2023-09-02T01:46:29.807Z,1.85
2023-09-02T01:48:59.423Z,1.50
2023-09-02T01:51:27.175Z,1.90
2023-09-02T01:53:53.858Z,1.60
2023-09-02T01:56:23.175Z,1.70
2023-09-02T01:58:50.823Z,1.70
2023-09-02T02:01:17.640Z,1.73
2023-09-02T02:04:00.938Z,2.15
2023-09-02T02:06:29.950Z,1.73
2023-09-02T02:09:05.317Z,1.60
2023-09-02T02:11:36.334Z,1.80
2023-09-02T02:14:03.859Z,2.10
2023-09-02T02:16:31.313Z,1.50
2023-09-02T02:19:01.357Z,1.45
2023-09-02T02:21:29.448Z,1.65
2023-09-02T02:23:56.174Z,1.60
2023-09-02T02:26:22.721Z,1.30
2023-09-02T02:28:49.236Z,1.60
2023-09-02T02:31:15.757Z,1.63
2023-09-02T02:33:42.287Z,1.52
2023-09-02T02:36:10.671Z,1.65
2023-09-02T02:38:37.834Z,1.83
2023-09-02T02:41:04.426Z,1.60
2023-09-02T02:43:33.179Z,1.80
2023-09-02T02:45:59.749Z,1.60
2023-09-02T02:48:29.732Z,1.52
2023-09-02T02:50:56.648Z,1.75
2023-09-02T02:53:23.518Z,1.88
2023-09-02T02:55:50.423Z,1.92
2023-09-02T02:58:17.578Z,1.85
2023-09-02T03:00:45.230Z,1.90
2023-09-02T03:03:14.151Z,1.88
2023-09-02T03:05:41.615Z,1.90
2023-09-02T03:08:09.246Z,1.75
2023-09-02T03:10:36.983Z,2.10
2023-09-02T03:13:04.375Z,2.05
2023-09-02T03:15:31.122Z,2.10
2023-09-02T03:17:57.807Z,2.10
2023-09-02T03:20:24.436Z,2.38
2023-09-02T03:22:50.942Z,1.88
2023-09-02T03:25:17.483Z,2.30
2023-09-02T03:27:44.022Z,2.30
2023-09-02T03:30:10.912Z,2.58
2023-09-02T03:32:37.559Z,2.33
2023-09-02T03:35:05.536Z,2.33
2023-09-02T03:37:32.073Z,2.33
2023-09-02T03:39:58.626Z,2.00
2023-09-02T03:42:25.177Z,2.10
2023-09-02T03:44:51.936Z,2.17
2023-09-02T03:47:18.494Z,1.90
2023-09-02T03:49:45.022Z,2.38
2023-09-02T03:52:11.567Z,2.20
2023-09-02T03:54:39.899Z,2.08
2023-09-02T03:57:09.170Z,2.15
2023-09-02T03:59:35.701Z,2.15
2023-09-02T04:02:04.566Z,2.30
2023-09-02T04:04:31.130Z,2.25
2023-09-02T04:06:57.687Z,2.08
2023-09-02T04:09:26.436Z,2.25
2023-09-02T04:11:53.194Z,1.70
2023-09-02T04:14:19.706Z,1.70
2023-09-02T04:16:46.253Z,1.63
2023-09-02T04:19:13.419Z,1.40
2023-09-02T04:21:40.957Z,1.52
2023-09-02T04:24:07.936Z,1.70
2023-09-02T04:26:34.492Z,1.88
2023-09-02T04:29:01.495Z,1.30
2023-09-02T04:31:28.059Z,1.88
2023-09-02T04:33:54.592Z,1.73
2023-09-02T04:36:21.112Z,2.20
2023-09-02T04:38:47.590Z,2.00
2023-09-02T04:41:14.228Z,1.92
2023-09-02T04:43:40.920Z,1.88
2023-09-02T04:46:09.038Z,1.92
2023-09-02T04:48:35.997Z,1.50
2023-09-02T04:51:04.759Z,2.00
2023-09-02T04:53:31.356Z,1.50
2023-09-02T04:55:58.077Z,1.77
2023-09-02T04:58:25.388Z,1.73
2023-09-02T05:00:53.611Z,1.55
2023-09-02T05:03:20.559Z,1.20
2023-09-02T05:05:47.409Z,1.55
2023-09-02T05:08:14.090Z,1.48
2023-09-02T05:10:40.611Z,1.85
2023-09-02T05:13:07.405Z,1.60
2023-09-02T05:15:33.991Z,1.70
2023-09-02T05:18:00.588Z,1.70
2023-09-02T05:20:27.125Z,1.48
2023-09-02T05:22:56.173Z,1.77
2023-09-02T05:25:22.973Z,1.45
2023-09-02T05:27:49.686Z,1.65
2023-09-02T05:30:16.237Z,1.40
2023-09-02T05:32:42.890Z,2.10
2023-09-02T05:35:09.480Z,2.08
2023-09-02T05:37:36.018Z,2.30
2023-09-02T05:40:03.352Z,1.80
2023-09-02T05:42:29.873Z,2.28
2023-09-02T05:44:56.390Z,2.65
2023-09-02T05:47:22.982Z,2.33
2023-09-02T05:49:49.471Z,2.42
2023-09-02T05:52:15.980Z,2.45
2023-09-02T05:54:42.440Z,2.40
2023-09-02T05:57:11.335Z,2.58
2023-09-02T05:59:40.091Z,2.35
2023-09-02T06:02:06.628Z,2.10
2023-09-02T06:04:33.172Z,2.35
2023-09-02T06:06:59.714Z,2.10
2023-09-02T06:09:27.979Z,2.50
2023-09-02T06:11:54.653Z,2.40
2023-09-02T06:14:21.488Z,2.13
2023-09-02T06:16:50.532Z,2.45
2023-09-02T06:19:17.235Z,2.58
2023-09-02T06:21:43.745Z,2.10
2023-09-02T06:24:10.284Z,2.25
2023-09-02T06:26:38.918Z,2.50
2023-09-02T06:29:05.439Z,2.45
2023-09-02T06:31:32.055Z,2.40
2023-09-02T06:33:58.625Z,2.53
2023-09-02T06:36:25.191Z,2.40
2023-09-02T06:38:51.800Z,3.05
2023-09-02T06:41:21.111Z,2.13
2023-09-02T06:43:47.681Z,2.42
2023-09-02T06:46:18.127Z,2.03
2023-09-02T06:48:45.809Z,2.33
2023-09-02T06:51:13.709Z,2.10
2023-09-02T06:53:41.314Z,2.90
2023-09-02T06:56:09.493Z,2.50
2023-09-02T06:58:41.353Z,2.22
2023-09-02T07:01:08.007Z,2.30
2023-09-02T07:03:34.617Z,2.33
2023-09-02T07:06:14.786Z,2.53
2023-09-02T07:08:41.572Z,2.03
2023-09-02T07:11:10.665Z,1.65
2023-09-02T07:13:38.243Z,1.67
2023-09-02T07:16:06.159Z,1.65
2023-09-02T07:18:33.778Z,1.60
2023-09-02T07:21:07.658Z,1.85
2023-09-02T07:23:34.585Z,1.67
2023-09-02T07:26:02.519Z,1.60
2023-09-02T07:28:29.584Z,1.50
2023-09-02T07:31:00.134Z,1.70
2023-09-02T07:33:26.822Z,1.40
2023-09-02T07:35:53.587Z,1.40
2023-09-02T07:38:20.149Z,1.73
2023-09-02T07:40:46.653Z,1.70
2023-09-02T07:43:13.141Z,1.65
2023-09-02T07:45:39.676Z,1.40
2023-09-02T07:48:06.457Z,1.30
2023-09-02T07:50:35.447Z,1.33
2023-09-02T07:53:01.990Z,1.45
2023-09-02T07:55:28.477Z,1.55
2023-09-02T07:57:55.081Z,1.60
2023-09-02T08:00:21.642Z,1.38
2023-09-02T08:02:48.187Z,1.50
2023-09-02T08:05:14.722Z,1.60
2023-09-02T08:07:41.371Z,1.70
2023-09-02T08:10:08.465Z,2.03
2023-09-02T08:12:34.970Z,1.45
2023-09-02T08:15:01.464Z,1.63
2023-09-02T08:17:28.046Z,1.38
2023-09-02T08:19:54.783Z,1.80
2023-09-02T08:22:21.407Z,1.50
2023-09-02T08:24:47.927Z,1.33
2023-09-02T08:27:14.470Z,1.73
2023-09-02T08:29:41.074Z,1.35
2023-09-02T08:32:07.592Z,1.25
2023-09-02T08:34:34.120Z,1.50
2023-09-02T08:37:00.593Z,1.45
2023-09-02T08:39:29.637Z,1.58
2023-09-02T08:41:59.092Z,1.20
2023-09-02T08:44:29.106Z,1.50
2023-09-02T08:46:57.519Z,1.40
2023-09-02T08:49:24.844Z,1.33
2023-09-02T08:51:51.934Z,1.45
2023-09-02T08:54:19.387Z,1.50
2023-09-02T08:56:49.209Z,1.40
2023-09-02T08:59:16.205Z,1.40
2023-09-02T09:01:44.529Z,2.42
2023-09-02T09:04:14.073Z,1.58
2023-09-02T09:06:41.345Z,1.73
2023-09-02T09:09:12.047Z,1.42
2023-09-02T09:11:43.570Z,1.40
2023-09-02T09:14:32.033Z,1.27
2023-09-02T09:17:00.156Z,1.40
2023-09-02T09:19:28.363Z,1.25
2023-09-02T09:21:58.464Z,1.40
2023-09-02T09:24:25.321Z,1.55
2023-09-02T09:26:52.302Z,1.13
2023-09-02T09:29:22.177Z,1.20
2023-09-02T09:31:52.435Z,1.20
2023-09-02T09:34:18.980Z,1.20
2023-09-02T09:36:57.846Z,1.35
2023-09-02T09:39:40.359Z,1.25
2023-09-02T09:42:07.392Z,1.30
2023-09-02T09:44:34.267Z,1.02
2023-09-02T09:47:02.036Z,1.50
2023-09-02T09:49:30.985Z,1.20
2023-09-02T09:52:10.876Z,1.25
2023-09-02T09:54:57.293Z,1.50
2023-09-02T09:57:39.501Z,1.08
2023-09-02T10:00:07.798Z,1.10
2023-09-02T10:02:35.415Z,1.40
2023-09-02T10:05:03.417Z,1.38
2023-09-02T10:07:32.899Z,1.30
2023-09-02T10:10:02.279Z,1.70
2023-09-02T10:12:38.142Z,1.40
2023-09-02T10:15:07.267Z,1.52
2023-09-02T10:17:34.178Z,1.30
2023-09-02T10:20:00.908Z,1.35
2023-09-02T10:22:34.379Z,1.30
2023-09-02T10:25:15.156Z,1.60
2023-09-02T10:27:45.068Z,1.60
2023-09-02T10:30:33.340Z,1.38
2023-09-02T10:33:17.840Z,1.40
2023-09-02T10:35:51.960Z,1.52
2023-09-02T10:38:22.230Z,2.00
2023-09-02T10:40:57.640Z,1.67
2023-09-02T10:43:25.532Z,1.23
2023-09-02T10:45:54.752Z,1.70
2023-09-02T10:48:21.471Z,1.40
2023-09-02T10:50:48.361Z,1.42
2023-09-02T10:53:15.290Z,1.42
2023-09-02T10:56:02.271Z,2.03
2023-09-02T10:58:28.924Z,1.95
2023-09-02T11:00:55.628Z,2.08
2023-09-02T11:03:44.856Z,1.45
2023-09-02T11:06:13.812Z,1.52
2023-09-02T11:08:51.580Z,1.63
2023-09-02T11:11:19.086Z,1.42
2023-09-02T11:14:07.729Z,1.55
2023-09-02T11:16:41.733Z,1.48
2023-09-02T11:19:12.379Z,1.60
2023-09-02T11:21:47.412Z,1.35
2023-09-02T11:24:21.417Z,1.40
2023-09-02T11:26:58.667Z,1.60
2023-09-02T11:29:31.738Z,1.60
2023-09-02T11:32:05.636Z,1.58
2023-09-02T11:34:32.528Z,1.17
2023-09-02T11:37:02.980Z,1.48
2023-09-02T11:39:33.507Z,1.67
2023-09-02T11:42:13.488Z,2.50
2023-09-02T11:44:51.137Z,1.60
2023-09-02T11:47:17.754Z,1.65
2023-09-02T11:49:45.278Z,1.20
2023-09-02T11:52:11.807Z,2.00
2023-09-02T11:54:38.524Z,1.58
2023-09-02T11:57:05.174Z,1.08
2023-09-02T11:59:31.763Z,1.20
2023-09-02T12:02:09.522Z,1.40
2023-09-02T12:04:37.905Z,1.58
2023-09-02T12:07:06.239Z,1.40
2023-09-02T12:09:33.116Z,1.20
2023-09-02T12:11:59.686Z,1.52
2023-09-02T12:14:28.287Z,1.45
2023-09-02T12:16:57.096Z,1.35
2023-09-02T12:19:24.008Z,1.50
2023-09-02T12:21:51.225Z,1.30
2023-09-02T12:24:20.185Z,1.60
2023-09-02T12:26:48.292Z,1.40
2023-09-02T12:29:19.348Z,1.70
2023-09-02T12:31:56.894Z,1.48
2023-09-02T12:34:24.602Z,2.35
2023-09-02T12:36:51.451Z,1.40
2023-09-02T12:39:30.216Z,1.17
2023-09-02T12:42:01.897Z,1.48
2023-09-02T12:44:28.408Z,1.10
2023-09-02T12:46:57.383Z,1.40
2023-09-02T12:49:23.898Z,1.48
2023-09-02T12:51:50.359Z,1.58
2023-09-02T12:54:16.982Z,1.52
2023-09-02T12:56:43.497Z,1.65
2023-09-02T12:59:10.021Z,1.50
2023-09-02T13:01:39.273Z,1.40
2023-09-02T13:04:06.180Z,1.63
2023-09-02T13:06:32.812Z,1.55
2023-09-02T13:08:59.436Z,1.40
2023-09-02T13:11:27.725Z,1.40
2023-09-02T13:13:57.342Z,1.60
2023-09-02T13:16:25.796Z,1.50
2023-09-02T13:18:53.151Z,1.60
2023-09-02T13:21:19.960Z,2.00
2023-09-02T13:23:50.036Z,1.50
2023-09-02T13:26:20.482Z,1.70
2023-09-02T13:28:47.055Z,1.67
2023-09-02T13:31:17.803Z,1.90
2023-09-02T13:33:44.439Z,1.60
2023-09-02T13:36:12.760Z,1.70
2023-09-02T13:38:41.770Z,1.58
2023-09-02T13:41:10.789Z,1.50
2023-09-02T13:43:37.630Z,1.40
2023-09-02T13:46:08.574Z,1.58
2023-09-02T13:48:35.287Z,1.63
2023-09-02T13:51:04.933Z,1.40
2023-09-02T13:53:34.415Z,1.20
2023-09-02T13:56:01.759Z,1.75
2023-09-02T13:58:36.612Z,1.33
2023-09-02T14:01:04.593Z,1.67
2023-09-02T14:03:34.043Z,1.80
2023-09-02T14:06:04.534Z,1.50
2023-09-02T14:08:35.370Z,1.27
2023-09-02T14:11:05.796Z,1.30
2023-09-02T14:13:38.745Z,1.40
2023-09-02T14:16:06.215Z,1.50
2023-09-02T14:18:33.201Z,1.30
2023-09-02T14:20:59.851Z,1.52
2023-09-02T14:23:26.373Z,1.50
2023-09-02T14:25:53.109Z,1.42
2023-09-02T14:28:22.547Z,1.40
2023-09-02T14:30:49.285Z,1.50
2023-09-02T14:33:16.151Z,1.20
2023-09-02T14:35:43.066Z,1.42
2023-09-02T14:38:09.793Z,1.60
2023-09-02T14:40:36.397Z,1.38
2023-09-02T14:43:07.254Z,1.50
2023-09-02T14:45:34.127Z,1.48
2023-09-02T14:48:03.058Z,1.30
2023-09-02T14:50:30.103Z,1.88
2023-09-02T14:52:56.970Z,1.50
2023-09-02T14:55:23.562Z,1.48
2023-09-02T14:57:53.154Z,2.08
2023-09-02T15:00:19.841Z,2.10
2023-09-02T15:02:47.707Z,1.50
2023-09-02T15:05:18.718Z,1.40
2023-09-02T15:07:46.880Z,1.60
2023-09-02T15:10:43.280Z,1.10
2023-09-02T15:13:09.818Z,1.50
2023-09-02T15:15:41.533Z,1.33
2023-09-02T15:18:22.811Z,1.23
2023-09-02T15:20:52.211Z,1.38
2023-09-02T15:23:20.615Z,1.70
2023-09-02T15:25:47.799Z,1.45
2023-09-02T15:28:14.567Z,1.48
2023-09-02T15:30:43.922Z,1.38
2023-09-02T15:33:12.822Z,2.10
2023-09-02T15:35:39.686Z,2.00
2023-09-02T15:38:24.942Z,1.20
2023-09-02T15:40:51.535Z,1.40
2023-09-02T15:43:18.422Z,1.75
2023-09-02T15:45:45.440Z,1.83
2023-09-02T15:48:12.137Z,1.58
2023-09-02T15:50:38.754Z,1.88
2023-09-02T15:53:05.322Z,1.65
2023-09-02T15:55:31.902Z,1.42
2023-09-02T15:57:58.468Z,1.58
2023-09-02T16:00:25.174Z,1.60
2023-09-02T16:02:52.296Z,1.67
2023-09-02T16:05:19.408Z,1.45
2023-09-02T16:07:50.509Z,1.23
2023-09-02T16:10:17.748Z,1.63
2023-09-02T16:12:44.534Z,1.25
2023-09-02T16:15:12.436Z,1.60
2023-09-02T16:17:41.060Z,1.80
2023-09-02T16:20:11.394Z,1.23
2023-09-02T16:22:39.407Z,1.38
2023-09-02T16:25:06.341Z,1.55
2023-09-02T16:27:35.305Z,1.30
2023-09-02T16:30:05.990Z,1.55
2023-09-02T16:32:33.064Z,1.52
2023-09-02T16:35:00.380Z,1.40
2023-09-02T16:37:26.980Z,1.23
2023-09-02T16:39:59.736Z,1.48
2023-09-02T16:42:30.180Z,1.40
2023-09-02T16:45:04.082Z,1.35
2023-09-02T16:47:39.706Z,1.42
2023-09-02T16:50:07.923Z,1.27
2023-09-02T16:52:39.580Z,1.67
2023-09-02T16:55:08.471Z,1.50
2023-09-02T16:57:54.497Z,1.55
2023-09-02T17:00:42.293Z,1.38
2023-09-02T17:03:13.399Z,1.80
2023-09-02T17:05:43.039Z,1.58
2023-09-02T17:08:09.557Z,1.92
2023-09-02T17:10:36.376Z,1.70
2023-09-02T17:13:05.635Z,2.05
2023-09-02T17:15:37.553Z,1.63
2023-09-02T17:18:09.298Z,1.70
2023-09-02T17:20:38.824Z,1.52
2023-09-02T17:23:18.243Z,1.60
2023-09-02T17:25:46.915Z,1.50
2023-09-02T17:28:22.701Z,1.70
2023-09-02T17:30:57.657Z,1.42
2023-09-02T17:33:27.078Z,1.60
2023-09-02T17:35:53.592Z,1.63
2023-09-02T17:38:20.371Z,1.77
2023-09-02T17:40:47.558Z,1.52
2023-09-02T17:43:14.093Z,1.70
2023-09-02T17:45:43.042Z,1.60
2023-09-02T17:48:09.648Z,1.50
2023-09-02T17:50:36.145Z,1.40
2023-09-02T17:53:02.760Z,1.80
2023-09-02T17:55:29.469Z,1.60
2023-09-02T17:57:56.093Z,1.63
2023-09-02T18:00:22.586Z,2.35
2023-09-02T18:02:49.207Z,1.90
2023-09-02T18:05:15.969Z,1.70
2023-09-02T18:07:42.565Z,1.80
2023-09-02T18:10:11.461Z,1.98
2023-09-02T18:12:39.217Z,2.00
2023-09-02T18:15:07.222Z,1.65
2023-09-02T18:17:36.861Z,2.00
2023-09-02T18:20:04.864Z,2.13
2023-09-02T18:22:31.371Z,2.20
2023-09-02T18:24:58.477Z,2.40
2023-09-02T18:27:25.104Z,2.33
2023-09-02T18:29:51.634Z,2.25
2023-09-02T18:32:19.366Z,2.70
2023-09-02T18:34:46.305Z,2.50
2023-09-02T18:37:13.575Z,2.28
2023-09-02T18:39:40.340Z,2.20
2023-09-02T18:42:07.610Z,2.30
2023-09-02T18:44:34.237Z,2.40
2023-09-02T18:47:00.837Z,2.35
2023-09-02T18:49:27.389Z,2.35
2023-09-02T18:51:53.901Z,2.20
2023-09-02T18:54:20.500Z,2.08
2023-09-02T18:56:47.023Z,2.50
2023-09-02T18:59:13.665Z,2.63
2023-09-02T19:01:40.210Z,3.00
2023-09-02T19:04:09.033Z,2.05
2023-09-02T19:06:36.337Z,2.35
2023-09-02T19:09:05.509Z,2.30
2023-09-02T19:11:32.403Z,2.42
2023-09-02T19:13:59.020Z,2.30
2023-09-02T19:16:26.293Z,2.55
2023-09-02T19:18:54.752Z,2.00
2023-09-02T19:21:25.632Z,2.10
2023-09-02T19:23:53.672Z,2.03
2023-09-02T19:26:21.764Z,2.10
2023-09-02T19:28:48.330Z,1.60
2023-09-02T19:31:14.979Z,1.58
2023-09-02T19:33:43.349Z,1.73
2023-09-02T19:36:10.322Z,1.80
2023-09-02T19:38:36.841Z,1.55
2023-09-02T19:41:11.126Z,2.03
2023-09-02T19:43:39.486Z,2.13
2023-09-02T19:46:07.892Z,1.70
2023-09-02T19:48:34.992Z,1.90
2023-09-02T19:51:01.619Z,2.20
2023-09-02T19:53:28.185Z,2.15
2023-09-02T19:55:56.366Z,2.10
2023-09-02T19:58:23.123Z,1.95
2023-09-02T20:00:49.846Z,1.80
2023-09-02T20:03:18.072Z,1.88
2023-09-02T20:05:45.935Z,2.40
2023-09-02T20:08:13.570Z,2.03
2023-09-02T20:10:40.415Z,1.95
2023-09-02T20:13:08.105Z,3.28
2023-09-02T20:15:35.758Z,2.60
2023-09-02T20:18:02.455Z,2.38
2023-09-02T20:20:29.168Z,2.65
2023-09-02T20:22:55.710Z,2.53
2023-09-02T20:25:22.243Z,2.25
2023-09-02T20:27:48.845Z,2.88
2023-09-02T20:30:16.840Z,2.30
2023-09-02T20:32:43.794Z,2.13
2023-09-02T20:35:11.822Z,2.72
2023-09-02T20:37:39.776Z,2.53
2023-09-02T20:40:08.570Z,2.08
2023-09-02T20:42:35.618Z,2.53
2023-09-02T20:45:04.308Z,2.47
2023-09-02T20:47:31.411Z,3.10
2023-09-02T20:49:58.044Z,3.47
2023-09-02T20:52:27.143Z,3.38
2023-09-02T20:54:55.126Z,3.15
2023-09-02T20:57:22.018Z,3.22
2023-09-02T20:59:50.445Z,2.70
2023-09-02T21:02:17.023Z,2.72
2023-09-02T21:04:45.446Z,2.40
2023-09-02T21:07:12.027Z,2.35
2023-09-02T21:09:38.762Z,2.40
2023-09-02T21:12:05.553Z,2.22
2023-09-02T21:14:32.056Z,2.80
2023-09-02T21:16:58.807Z,2.13
2023-09-02T21:19:25.350Z,2.58
2023-09-02T21:21:51.943Z,2.58
2023-09-02T21:24:19.770Z,2.22
2023-09-02T21:26:46.414Z,2.30
2023-09-02T21:29:12.911Z,2.08
2023-09-02T21:31:39.468Z,2.00
2023-09-02T21:34:08.277Z,2.20
2023-09-02T21:36:34.831Z,2.47
2023-09-02T21:39:01.359Z,2.78
2023-09-02T21:41:27.910Z,2.58
2023-09-02T21:43:54.578Z,2.60
2023-09-02T21:46:23.371Z,2.50
2023-09-02T21:48:50.518Z,2.72
2023-09-02T21:51:17.056Z,2.78
2023-09-02T21:53:44.236Z,2.85
2023-09-02T21:56:11.400Z,2.53
2023-09-02T21:58:40.160Z,2.25
2023-09-02T22:01:08.888Z,2.33
2023-09-02T22:03:36.633Z,2.15
2023-09-02T22:06:11.467Z,2.78
2023-09-02T22:08:43.398Z,2.10
2023-09-02T22:11:11.348Z,2.00
2023-09-02T22:13:38.381Z,2.30
2023-09-02T22:16:06.497Z,2.10
2023-09-02T22:18:33.639Z,2.53
2023-09-02T22:21:00.925Z,2.35
2023-09-02T22:23:29.590Z,2.30
2023-09-02T22:26:04.382Z,2.20
2023-09-02T22:28:34.593Z,2.10
2023-09-02T22:31:02.401Z,2.10
2023-09-02T22:33:30.746Z,2.30
2023-09-02T22:35:57.837Z,2.05
2023-09-02T22:38:34.234Z,2.30
2023-09-02T22:41:11.738Z,2.20
2023-09-02T22:43:38.707Z,2.00
2023-09-02T22:46:09.822Z,2.00
2023-09-02T22:48:36.719Z,2.00
2023-09-02T22:51:12.247Z,2.38
2023-09-02T22:53:41.296Z,2.10
2023-09-02T22:56:12.239Z,2.28
2023-09-02T22:58:41.657Z,2.30
2023-09-02T23:01:14.341Z,2.10
2023-09-02T23:03:43.344Z,2.10
2023-09-02T23:06:12.275Z,2.10
2023-09-02T23:08:39.654Z,2.28
2023-09-02T23:11:06.277Z,2.50
2023-09-02T23:13:32.946Z,2.30
2023-09-02T23:16:04.455Z,2.90
2023-09-02T23:18:31.744Z,3.30
2023-09-02T23:21:09.131Z,3.30
2023-09-02T23:23:38.269Z,3.60
2023-09-02T23:26:04.849Z,3.08
2023-09-02T23:28:31.522Z,2.97
2023-09-02T23:30:59.135Z,2.45
2023-09-02T23:33:28.630Z,1.70
2023-09-02T23:35:56.825Z,1.50
2023-09-02T23:38:25.002Z,1.48
2023-09-02T23:40:54.902Z,1.80
2023-09-02T23:43:22.539Z,1.70
2023-09-02T23:45:53.644Z,1.67
2023-09-02T23:48:21.360Z,2.00
2023-09-02T23:50:52.361Z,1.65
2023-09-02T23:53:19.007Z,1.90
2023-09-02T23:55:48.736Z,2.15
2023-09-02T23:58:18.541Z,2.25
